createdAt,value
2022-12-04T00:01:53.982Z,90.32
2022-12-04T00:06:02.234Z,90.84
2022-12-04T00:10:03.911Z,90.80
2022-12-04T00:14:07.374Z,91.07
2022-12-04T00:18:10.314Z,90.86
2022-12-04T00:22:11.680Z,91.30
2022-12-04T00:26:14.070Z,90.59
2022-12-04T00:30:15.505Z,91.08
2022-12-04T00:34:18.300Z,91.63
2022-12-04T00:38:19.657Z,91.29
2022-12-04T00:42:21.046Z,91.76
2022-12-04T00:46:22.835Z,91.34
2022-12-04T00:50:25.630Z,90.46
2022-12-04T00:54:27.024Z,91.03
2022-12-04T00:58:28.393Z,91.14
2022-12-04T01:02:30.532Z,91.02
2022-12-04T01:06:34.069Z,91.51
2022-12-04T01:10:37.585Z,91.47
2022-12-04T01:14:38.988Z,91.47
2022-12-04T01:18:40.378Z,91.67
2022-12-04T01:22:43.140Z,91.61
2022-12-04T01:26:44.513Z,91.73
2022-12-04T01:30:45.919Z,91.87
2022-12-04T01:34:47.355Z,91.59
2022-12-04T01:38:50.094Z,90.96
2022-12-04T01:42:51.506Z,91.60
2022-12-04T01:46:53.585Z,91.07
2022-12-04T01:50:58.243Z,91.18
2022-12-04T01:55:01.232Z,92.14
2022-12-04T01:59:03.001Z,92.08
2022-12-04T02:03:04.427Z,91.89
2022-12-04T02:07:05.917Z,92.08
2022-12-04T02:11:12.985Z,91.41
2022-12-04T02:15:16.813Z,91.31
2022-12-04T02:19:31.655Z,91.21
2022-12-04T02:23:47.895Z,91.39
2022-12-04T02:27:58.822Z,91.35
2022-12-04T02:32:06.876Z,91.43
2022-12-04T02:36:11.508Z,90.94
2022-12-04T02:40:16.833Z,91.57
2022-12-04T02:44:22.216Z,91.02
2022-12-04T02:48:26.222Z,91.31
2022-12-04T02:52:29.656Z,91.86
2022-12-04T02:56:32.440Z,92.47
2022-12-04T03:00:35.710Z,92.29
2022-12-04T03:04:38.831Z,92.38
2022-12-04T03:08:43.696Z,92.52
2022-12-04T03:12:47.266Z,92.01
2022-12-04T03:16:52.040Z,92.00
2022-12-04T03:20:59.725Z,92.27
2022-12-04T03:25:03.177Z,92.57
2022-12-04T03:29:07.561Z,92.51
2022-12-04T03:33:13.011Z,92.56
2022-12-04T03:37:15.978Z,92.29
2022-12-04T03:41:23.623Z,92.60
2022-12-04T03:45:26.752Z,92.23
2022-12-04T03:49:32.960Z,92.03
2022-12-04T03:53:38.116Z,92.88
2022-12-04T03:57:42.204Z,92.89
2022-12-04T04:01:46.452Z,92.62
2022-12-04T04:05:53.918Z,92.18
2022-12-04T04:10:02.792Z,92.56
2022-12-04T04:14:06.970Z,92.02
2022-12-04T04:18:08.349Z,92.83
2022-12-04T04:22:11.218Z,92.59
2022-12-04T04:26:13.109Z,92.85
2022-12-04T04:30:14.546Z,92.43
2022-12-04T04:34:20.654Z,92.32
2022-12-04T04:38:27.637Z,91.97
2022-12-04T04:42:32.880Z,92.20
2022-12-04T04:46:36.448Z,92.59
2022-12-04T04:50:39.017Z,92.25
2022-12-04T04:54:41.939Z,91.79
2022-12-04T04:58:43.527Z,92.18
2022-12-04T05:02:45.276Z,92.34
2022-12-04T05:06:46.673Z,92.85
2022-12-04T05:10:49.403Z,92.91
2022-12-04T05:14:50.759Z,92.51
2022-12-04T05:18:52.172Z,92.11
2022-12-04T05:22:53.575Z,92.10
2022-12-04T05:26:56.327Z,92.34
2022-12-04T05:30:58.608Z,92.12
2022-12-04T05:35:00.007Z,92.23
2022-12-04T05:39:01.366Z,92.27
2022-12-04T05:43:04.093Z,92.24
2022-12-04T05:47:05.554Z,92.58
2022-12-04T05:51:07.406Z,92.12
2022-12-04T05:55:08.942Z,93.05
2022-12-04T05:59:11.664Z,93.11
2022-12-04T06:03:13.044Z,93.59
2022-12-04T06:07:14.401Z,92.70
2022-12-04T06:11:16.832Z,93.11
2022-12-04T06:15:19.551Z,93.50
2022-12-04T06:19:21.620Z,93.47
2022-12-04T06:23:23.009Z,92.94
2022-12-04T06:27:28.437Z,92.53
2022-12-04T06:31:31.653Z,93.41
2022-12-04T06:35:33.052Z,93.50
2022-12-04T06:39:34.413Z,93.51
2022-12-04T06:43:36.060Z,93.03
2022-12-04T06:47:38.788Z,93.20
2022-12-04T06:51:40.188Z,92.88
2022-12-04T06:55:47.108Z,93.51
2022-12-04T06:59:48.489Z,93.54
2022-12-04T07:03:52.018Z,93.78
2022-12-04T07:07:53.469Z,93.74
2022-12-04T07:11:54.851Z,94.03
2022-12-04T07:15:59.240Z,93.78
2022-12-04T07:20:01.972Z,93.46
2022-12-04T07:24:03.482Z,92.89
2022-12-04T07:28:05.025Z,93.50
2022-12-04T07:32:06.481Z,92.66
2022-12-04T07:36:12.299Z,92.37
2022-12-04T07:40:13.887Z,92.71
2022-12-04T07:44:15.259Z,91.93
2022-12-04T07:48:16.601Z,92.00
2022-12-04T07:52:19.331Z,92.27
2022-12-04T07:56:20.723Z,92.06
2022-12-04T08:00:22.248Z,91.66
2022-12-04T08:04:23.640Z,90.96
2022-12-04T08:08:26.376Z,89.42
2022-12-04T08:12:27.758Z,88.47
2022-12-04T08:16:30.168Z,87.47
2022-12-04T08:20:31.664Z,87.75
2022-12-04T08:24:34.406Z,87.76
2022-12-04T08:28:36.430Z,88.47
2022-12-04T08:32:37.797Z,88.15
2022-12-04T08:36:39.190Z,88.44
2022-12-04T08:40:41.936Z,88.79
2022-12-04T08:44:43.280Z,88.76
2022-12-04T08:48:45.052Z,89.09
2022-12-04T08:52:46.427Z,88.03
2022-12-04T08:56:49.184Z,87.92
2022-12-04T09:00:50.562Z,88.23
2022-12-04T09:04:51.970Z,88.04
2022-12-04T09:08:53.889Z,87.97
2022-12-04T09:12:56.648Z,87.83
2022-12-04T09:16:58.029Z,88.69
2022-12-04T09:21:00.536Z,88.14
2022-12-04T09:25:01.885Z,89.24
2022-12-04T09:29:05.144Z,89.08
2022-12-04T09:33:06.515Z,88.82
2022-12-04T09:37:07.888Z,88.64
2022-12-04T09:41:16.645Z,88.20
2022-12-04T09:45:22.072Z,87.73
2022-12-04T09:49:25.532Z,88.01
2022-12-04T09:53:28.752Z,87.59
2022-12-04T09:57:35.382Z,87.79
2022-12-04T10:01:41.766Z,87.82
2022-12-04T10:05:48.195Z,87.38
2022-12-04T10:09:54.863Z,86.88
2022-12-04T10:14:14.028Z,87.36
2022-12-04T10:18:23.041Z,87.35
2022-12-04T10:22:28.993Z,87.77
2022-12-04T10:26:32.812Z,86.72
2022-12-04T10:30:36.121Z,86.88
2022-12-04T10:34:44.088Z,87.02
2022-12-04T10:38:49.528Z,86.76
2022-12-04T10:42:54.185Z,87.06
2022-12-04T10:46:56.609Z,87.38
2022-12-04T10:50:59.501Z,87.73
2022-12-04T10:55:01.210Z,88.13
2022-12-04T10:59:03.875Z,87.90
2022-12-04T11:03:09.343Z,88.04
2022-12-04T11:07:20.618Z,88.73
2022-12-04T11:11:26.633Z,88.74
2022-12-04T11:15:28.491Z,89.27
2022-12-04T11:19:31.503Z,89.27
2022-12-04T11:23:35.213Z,88.99
2022-12-04T11:27:37.316Z,88.92
2022-12-04T11:31:38.760Z,88.74
2022-12-04T11:35:40.232Z,88.47
2022-12-04T11:39:44.920Z,88.77
2022-12-04T11:43:48.922Z,88.86
2022-12-04T11:47:53.736Z,89.13
2022-12-04T11:52:00.835Z,89.38
2022-12-04T11:56:09.578Z,89.09
2022-12-04T12:00:13.279Z,88.53
2022-12-04T12:04:25.752Z,88.46
2022-12-04T12:08:32.550Z,88.16
2022-12-04T12:12:41.079Z,87.83
2022-12-04T12:16:51.617Z,88.13
2022-12-04T12:20:56.612Z,88.56
2022-12-04T12:25:02.158Z,87.62
2022-12-04T12:29:13.960Z,87.68
2022-12-04T12:33:18.719Z,86.78
2022-12-04T12:37:23.869Z,87.15
2022-12-04T12:41:27.669Z,86.78
2022-12-04T12:45:33.562Z,86.33
2022-12-04T12:49:38.124Z,85.73
2022-12-04T12:53:41.746Z,87.63
2022-12-04T12:57:45.151Z,87.80
2022-12-04T13:01:52.767Z,86.85
2022-12-04T13:05:59.604Z,87.63
2022-12-04T13:10:03.471Z,87.83
2022-12-04T13:14:04.934Z,88.68
2022-12-04T13:18:10.621Z,88.31
2022-12-04T13:22:16.484Z,88.50
2022-12-04T13:26:24.370Z,88.71
2022-12-04T13:30:30.967Z,88.54
2022-12-04T13:34:53.123Z,87.96
2022-12-04T13:39:03.109Z,87.97
2022-12-04T13:43:23.062Z,88.04
2022-12-04T13:47:28.490Z,88.03
2022-12-04T13:51:37.963Z,87.79
2022-12-04T13:55:39.970Z,87.36
2022-12-04T13:59:41.740Z,87.34
2022-12-04T14:03:46.992Z,88.49
2022-12-04T14:08:00.804Z,89.29
2022-12-04T14:12:05.734Z,89.41
2022-12-04T14:16:08.984Z,88.93
2022-12-04T14:20:21.943Z,89.02
2022-12-04T14:24:30.542Z,88.85
2022-12-04T14:28:42.133Z,89.68
2022-12-04T14:32:44.124Z,89.96
2022-12-04T14:36:47.077Z,89.62
2022-12-04T14:40:51.506Z,89.19
2022-12-04T14:44:54.307Z,89.54
2022-12-04T14:48:59.681Z,89.55
2022-12-04T14:53:08.974Z,90.20
2022-12-04T14:57:22.943Z,90.46
2022-12-04T15:01:29.082Z,91.19
2022-12-04T15:05:31.855Z,90.97
2022-12-04T15:09:33.191Z,90.35
2022-12-04T15:13:36.888Z,90.52
2022-12-04T15:17:38.310Z,90.11
2022-12-04T15:21:40.963Z,90.77
2022-12-04T15:25:45.498Z,91.19
2022-12-04T15:29:48.847Z,91.64
2022-12-04T15:33:52.499Z,91.31
2022-12-04T15:37:54.075Z,90.75
2022-12-04T15:42:03.673Z,90.71
2022-12-04T15:46:13.382Z,91.57
2022-12-04T15:50:20.867Z,90.87
2022-12-04T15:54:24.524Z,90.63
2022-12-04T15:58:26.980Z,90.61
2022-12-04T16:02:30.817Z,91.43
2022-12-04T16:06:33.429Z,91.00
2022-12-04T16:10:35.787Z,91.06
2022-12-04T16:14:37.280Z,90.95
2022-12-04T16:18:40.602Z,91.47
2022-12-04T16:22:42.211Z,90.58
2022-12-04T16:26:43.601Z,90.41
2022-12-04T16:30:45.069Z,91.01
2022-12-04T16:34:48.178Z,90.99
2022-12-04T16:38:49.535Z,90.68
2022-12-04T16:42:50.862Z,91.02
2022-12-04T16:46:52.291Z,91.14
2022-12-04T16:50:55.035Z,90.53
2022-12-04T16:55:00.512Z,90.87
2022-12-04T16:59:08.955Z,91.50
2022-12-04T17:03:16.950Z,91.55
2022-12-04T17:07:20.107Z,91.05
2022-12-04T17:11:21.422Z,91.90
2022-12-04T17:15:22.959Z,91.46
2022-12-04T17:19:24.307Z,91.47
2022-12-04T17:23:27.055Z,91.34
2022-12-04T17:27:28.415Z,91.46
2022-12-04T17:31:29.826Z,91.17
2022-12-04T17:35:31.388Z,91.23
2022-12-04T17:39:34.310Z,91.25
2022-12-04T17:43:36.041Z,91.09
2022-12-04T17:47:37.610Z,91.34
2022-12-04T17:51:38.985Z,91.18
2022-12-04T17:55:41.793Z,91.13
2022-12-04T17:59:43.172Z,90.85
2022-12-04T18:03:48.751Z,90.88
2022-12-04T18:07:50.241Z,91.20
2022-12-04T18:11:53.240Z,90.94
2022-12-04T18:15:54.711Z,91.12
2022-12-04T18:19:59.778Z,91.34
2022-12-04T18:24:05.028Z,91.08
2022-12-04T18:28:07.744Z,91.63
2022-12-04T18:32:09.097Z,91.04
2022-12-04T18:36:12.624Z,91.86
2022-12-04T18:40:13.995Z,91.58
2022-12-04T18:44:17.100Z,91.42
2022-12-04T18:48:18.482Z,92.28
2022-12-04T18:52:19.850Z,92.20
2022-12-04T18:56:21.575Z,92.00
2022-12-04T19:00:24.332Z,92.75
2022-12-04T19:04:25.735Z,92.57
2022-12-04T19:08:32.720Z,92.56
2022-12-04T19:12:36.871Z,92.23
2022-12-04T19:16:39.733Z,92.25
2022-12-04T19:20:41.224Z,92.36
2022-12-04T19:24:42.614Z,92.14
2022-12-04T19:28:43.964Z,91.77
2022-12-04T19:32:46.712Z,91.99
2022-12-04T19:36:48.061Z,92.31
2022-12-04T19:40:49.435Z,91.95
2022-12-04T19:44:50.786Z,91.79
2022-12-04T19:48:54.914Z,92.13
2022-12-04T19:52:56.288Z,91.83
2022-12-04T19:56:57.641Z,91.98
2022-12-04T20:00:59.125Z,91.65
2022-12-04T20:05:01.908Z,91.68
2022-12-04T20:09:04.497Z,91.58
2022-12-04T20:13:05.904Z,92.10
2022-12-04T20:17:07.319Z,92.31
2022-12-04T20:21:10.698Z,92.10
2022-12-04T20:25:12.043Z,91.46
2022-12-04T20:29:14.606Z,91.75
2022-12-04T20:33:15.993Z,91.86
2022-12-04T20:37:18.813Z,92.18
2022-12-04T20:41:20.174Z,92.16
2022-12-04T20:45:21.569Z,92.07
2022-12-04T20:49:22.896Z,92.02
2022-12-04T20:53:25.631Z,91.80
2022-12-04T20:57:27.020Z,91.78
2022-12-04T21:01:28.844Z,92.19
2022-12-04T21:05:30.259Z,92.00
2022-12-04T21:09:32.963Z,91.58
2022-12-04T21:13:34.507Z,91.67
2022-12-04T21:17:35.852Z,91.82
2022-12-04T21:21:37.609Z,91.34
2022-12-04T21:25:40.319Z,91.02
2022-12-04T21:29:41.639Z,91.70
2022-12-04T21:33:42.997Z,91.52
2022-12-04T21:37:44.369Z,90.78
2022-12-04T21:41:47.114Z,91.05
2022-12-04T21:45:55.874Z,91.15
2022-12-04T21:49:57.639Z,91.76
2022-12-04T21:53:59.293Z,91.82
2022-12-04T21:58:02.141Z,91.34
2022-12-04T22:02:03.890Z,90.58
2022-12-04T22:06:05.435Z,90.52
2022-12-04T22:10:10.912Z,90.68
2022-12-04T22:14:13.936Z,91.49
2022-12-04T22:18:15.321Z,91.49
2022-12-04T22:22:16.677Z,91.63
2022-12-04T22:26:18.376Z,91.67
2022-12-04T22:30:21.119Z,91.05
2022-12-04T22:34:22.508Z,91.21
2022-12-04T22:38:23.873Z,91.85
2022-12-04T22:42:25.204Z,92.11
2022-12-04T22:46:27.975Z,92.69
2022-12-04T22:50:29.357Z,91.84
2022-12-04T22:54:30.791Z,92.17
2022-12-04T22:58:32.168Z,92.74
2022-12-04T23:02:44.287Z,91.63
2022-12-04T23:06:45.675Z,91.33
2022-12-04T23:10:47.013Z,92.00
2022-12-04T23:14:48.413Z,92.70
2022-12-04T23:18:51.325Z,92.74
2022-12-04T23:22:52.690Z,92.84
2022-12-04T23:26:54.136Z,92.94
2022-12-04T23:30:55.483Z,93.05
2022-12-04T23:34:58.207Z,93.06
2022-12-04T23:39:00.442Z,93.24
2022-12-04T23:43:01.791Z,92.97
2022-12-04T23:47:03.307Z,92.91
2022-12-04T23:51:06.399Z,92.65
2022-12-04T23:55:08.128Z,92.49
2022-12-04T23:59:09.512Z,92.66
